sensor_id;sensor_type;location;lat;lon;timestamp;pressure;altitude;pressure_sealevel;temperature;humidity
15314;BME280;7757;52.626;4.746;2023-05-07T00:01:17;101482.13;;;19.93;63.72
15314;BME280;7757;52.626;4.746;2023-05-07T00:04:05;101483.47;;;19.73;64.35
15314;BME280;7757;52.626;4.746;2023-05-07T00:06:51;101491.59;;;19.25;66.45
15314;BME280;7757;52.626;4.746;2023-05-07T00:09:36;101490.47;;;19.51;65.38
15314;BME280;7757;52.626;4.746;2023-05-07T00:12:28;101490.59;;;19.37;65.88
15314;BME280;7757;52.626;4.746;2023-05-07T00:15:15;101491.03;;;19.34;66.03
15314;BME280;7757;52.626;4.746;2023-05-07T00:18:02;101486.22;;;19.55;65.28
15314;BME280;7757;52.626;4.746;2023-05-07T00:20:48;101491.03;;;19.34;66.19
15314;BME280;7757;52.626;4.746;2023-05-07T00:23:34;101489.69;;;19.62;64.80
15314;BME280;7757;52.626;4.746;2023-05-07T00:26:19;101488.47;;;19.87;64.17
15314;BME280;7757;52.626;4.746;2023-05-07T00:29:08;101483.66;;;19.60;65.18
15314;BME280;7757;52.626;4.746;2023-05-07T00:31:53;101487.97;;;19.49;65.48
15314;BME280;7757;52.626;4.746;2023-05-07T00:34:42;101482.63;;;19.72;64.58
15314;BME280;7757;52.626;4.746;2023-05-07T00:37:31;101481.25;;;19.52;65.42
15314;BME280;7757;52.626;4.746;2023-05-07T00:40:17;101479.41;;;19.64;65.07
15314;BME280;7757;52.626;4.746;2023-05-07T00:43:02;101485.25;;;19.79;64.36
15314;BME280;7757;52.626;4.746;2023-05-07T00:45:48;101480.06;;;19.77;64.12
15314;BME280;7757;52.626;4.746;2023-05-07T00:48:33;101487.72;;;19.69;64.97
15314;BME280;7757;52.626;4.746;2023-05-07T00:51:25;101478.19;;;19.78;64.98
15314;BME280;7757;52.626;4.746;2023-05-07T00:54:15;101481.81;;;19.72;65.05
15314;BME280;7757;52.626;4.746;2023-05-07T00:57:02;101487.47;;;19.70;65.13
15314;BME280;7757;52.626;4.746;2023-05-07T00:59:48;101484.97;;;19.87;64.50
15314;BME280;7757;52.626;4.746;2023-05-07T01:02:33;101477.41;;;19.59;65.33
15314;BME280;7757;52.626;4.746;2023-05-07T01:05:19;101480.63;;;19.68;65.09
15314;BME280;7757;52.626;4.746;2023-05-07T01:08:05;101474.50;;;19.72;64.93
15314;BME280;7757;52.626;4.746;2023-05-07T01:10:52;101475.53;;;19.60;65.21
15314;BME280;7757;52.626;4.746;2023-05-07T01:13:41;101468.59;;;19.75;65.25
15314;BME280;7757;52.626;4.746;2023-05-07T01:16:29;101467.22;;;19.84;64.50
15314;BME280;7757;52.626;4.746;2023-05-07T01:19:17;101466.34;;;19.72;64.57
15314;BME280;7757;52.626;4.746;2023-05-07T01:22:07;101467.44;;;19.71;65.05
15314;BME280;7757;52.626;4.746;2023-05-07T01:24:54;101470.50;;;19.75;64.66
15314;BME280;7757;52.626;4.746;2023-05-07T01:27:46;101467.69;;;19.81;64.58
15314;BME280;7757;52.626;4.746;2023-05-07T01:30:35;101474.28;;;19.74;64.82
15314;BME280;7757;52.626;4.746;2023-05-07T01:33:21;101477.13;;;19.79;64.83
15314;BME280;7757;52.626;4.746;2023-05-07T01:36:07;101475.41;;;19.96;63.76
15314;BME280;7757;52.626;4.746;2023-05-07T01:38:54;101472.66;;;19.84;64.30
15314;BME280;7757;52.626;4.746;2023-05-07T01:41:44;101477.38;;;19.77;64.30
15314;BME280;7757;52.626;4.746;2023-05-07T01:44:31;101473.41;;;19.62;65.03
15314;BME280;7757;52.626;4.746;2023-05-07T01:47:16;101476.06;;;19.80;64.14
15314;BME280;7757;52.626;4.746;2023-05-07T01:50:03;101471.47;;;19.80;63.94
15314;BME280;7757;52.626;4.746;2023-05-07T01:52:52;101468.03;;;19.85;63.53
15314;BME280;7757;52.626;4.746;2023-05-07T01:55:37;101475.22;;;19.79;64.01
15314;BME280;7757;52.626;4.746;2023-05-07T01:58:26;101476.44;;;19.83;64.13
15314;BME280;7757;52.626;4.746;2023-05-07T02:01:12;101470.50;;;19.75;64.11
15314;BME280;7757;52.626;4.746;2023-05-07T02:04:01;101467.09;;;19.79;64.26
15314;BME280;7757;52.626;4.746;2023-05-07T02:06:46;101471.00;;;19.83;64.17
15314;BME280;7757;52.626;4.746;2023-05-07T02:09:32;101474.69;;;19.59;65.11
15314;BME280;7757;52.626;4.746;2023-05-07T02:12:20;101483.63;;;19.78;64.38
15314;BME280;7757;52.626;4.746;2023-05-07T02:15:10;101471.09;;;19.77;64.44
15314;BME280;7757;52.626;4.746;2023-05-07T02:17:59;101469.59;;;19.51;65.12
15314;BME280;7757;52.626;4.746;2023-05-07T02:20:45;101476.88;;;19.69;64.77
15314;BME280;7757;52.626;4.746;2023-05-07T02:23:30;101468.84;;;19.74;64.75
15314;BME280;7757;52.626;4.746;2023-05-07T02:26:15;101464.47;;;19.73;64.11
15314;BME280;7757;52.626;4.746;2023-05-07T02:29:03;101461.63;;;19.68;64.68
15314;BME280;7757;52.626;4.746;2023-05-07T02:31:52;101472.47;;;19.68;64.59
15314;BME280;7757;52.626;4.746;2023-05-07T02:34:38;101465.59;;;19.54;65.18
15314;BME280;7757;52.626;4.746;2023-05-07T02:37:23;101465.59;;;19.54;65.17
15314;BME280;7757;52.626;4.746;2023-05-07T02:40:12;101472.97;;;19.76;64.41
15314;BME280;7757;52.626;4.746;2023-05-07T02:42:57;101467.09;;;19.79;64.46
15314;BME280;7757;52.626;4.746;2023-05-07T02:45:43;101471.06;;;19.65;64.30
15314;BME280;7757;52.626;4.746;2023-05-07T02:48:29;101478.19;;;19.78;64.20
15314;BME280;7757;52.626;4.746;2023-05-07T02:51:20;101476.41;;;19.72;63.92
15314;BME280;7757;52.626;4.746;2023-05-07T02:54:06;101475.97;;;19.57;64.48
15314;BME280;7757;52.626;4.746;2023-05-07T02:56:51;101478.28;;;19.71;64.25
15314;BME280;7757;52.626;4.746;2023-05-07T02:59:43;101473.31;;;19.68;64.51
15314;BME280;7757;52.626;4.746;2023-05-07T03:02:35;101471.78;;;19.72;64.23
15314;BME280;7757;52.626;4.746;2023-05-07T03:05:22;101471.72;;;19.61;64.21
15314;BME280;7757;52.626;4.746;2023-05-07T03:08:07;101479.78;;;19.67;64.34
15314;BME280;7757;52.626;4.746;2023-05-07T03:10:53;101473.31;;;19.68;64.41
15314;BME280;7757;52.626;4.746;2023-05-07T03:13:38;101475.97;;;19.57;64.86
15314;BME280;7757;52.626;4.746;2023-05-07T03:16:24;101467.44;;;19.71;64.77
15314;BME280;7757;52.626;4.746;2023-05-07T03:19:15;101463.78;;;19.77;63.90
15314;BME280;7757;52.626;4.746;2023-05-07T03:22:02;101474.81;;;19.64;64.05
15314;BME280;7757;52.626;4.746;2023-05-07T03:24:47;101467.59;;;19.58;64.45
15314;BME280;7757;52.626;4.746;2023-05-07T03:27:38;101473.41;;;19.62;64.54
15314;BME280;7757;52.626;4.746;2023-05-07T03:30:23;101469.31;;;19.71;64.16
15314;BME280;7757;52.626;4.746;2023-05-07T03:33:12;101469.38;;;19.64;64.12
15314;BME280;7757;52.626;4.746;2023-05-07T03:35:57;101454.03;;;19.58;64.06
15314;BME280;7757;52.626;4.746;2023-05-07T03:38:44;101440.38;;;19.65;63.78
15314;BME280;7757;52.626;4.746;2023-05-07T03:41:33;101453.09;;;19.64;63.62
15314;BME280;7757;52.626;4.746;2023-05-07T03:44:18;101459.75;;;19.68;63.81
15314;BME280;7757;52.626;4.746;2023-05-07T03:47:10;101452.75;;;19.61;64.03
15314;BME280;7757;52.626;4.746;2023-05-07T03:49:55;101452.78;;;19.72;63.56
15314;BME280;7757;52.626;4.746;2023-05-07T03:52:40;101461.38;;;19.69;63.67
15314;BME280;7757;52.626;4.746;2023-05-07T03:55:27;101449.38;;;19.47;64.13
15314;BME280;7757;52.626;4.746;2023-05-07T03:58:16;101469.06;;;19.72;63.29
15314;BME280;7757;52.626;4.746;2023-05-07T04:01:04;101472.47;;;19.68;63.45
15314;BME280;7757;52.626;4.746;2023-05-07T04:03:52;101468.31;;;19.17;65.57
15314;BME280;7757;52.626;4.746;2023-05-07T04:06:43;101469.66;;;19.44;64.36
15314;BME280;7757;52.626;4.746;2023-05-07T04:09:29;101472.94;;;19.65;63.95
15314;BME280;7757;52.626;4.746;2023-05-07T04:12:17;101470.47;;;19.63;63.75
15314;BME280;7757;52.626;4.746;2023-05-07T04:15:03;101474.16;;;19.69;63.39
15314;BME280;7757;52.626;4.746;2023-05-07T04:17:49;101471.09;;;19.29;64.99
15314;BME280;7757;52.626;4.746;2023-05-07T04:20:34;101465.53;;;19.24;64.59
15314;BME280;7757;52.626;4.746;2023-05-07T04:23:21;101479.16;;;19.35;64.62
15314;BME280;7757;52.626;4.746;2023-05-07T04:26:06;101471.97;;;19.59;63.53
15314;BME280;7757;52.626;4.746;2023-05-07T04:28:56;101477.41;;;19.59;63.95
15314;BME280;7757;52.626;4.746;2023-05-07T04:31:42;101476.16;;;19.43;64.02
15314;BME280;7757;52.626;4.746;2023-05-07T04:34:29;101485.41;;;19.54;63.63
15314;BME280;7757;52.626;4.746;2023-05-07T04:37:16;101487.75;;;19.51;63.96
15314;BME280;7757;52.626;4.746;2023-05-07T04:40:02;101482.63;;;19.72;63.36
15314;BME280;7757;52.626;4.746;2023-05-07T04:42:47;101481.41;;;19.57;63.76
15314;BME280;7757;52.626;4.746;2023-05-07T04:45:35;101496.56;;;19.76;63.51
15314;BME280;7757;52.626;4.746;2023-05-07T04:48:20;101502.03;;;19.87;62.85
15314;BME280;7757;52.626;4.746;2023-05-07T04:51:06;101506.81;;;19.92;62.87
15314;BME280;7757;52.626;4.746;2023-05-07T04:53:51;101499.63;;;19.97;62.15
15314;BME280;7757;52.626;4.746;2023-05-07T04:56:36;101506.59;;;19.75;62.77
15314;BME280;7757;52.626;4.746;2023-05-07T04:59:22;101500.03;;;19.83;62.64
15314;BME280;7757;52.626;4.746;2023-05-07T05:02:09;101502.94;;;19.70;63.43
15314;BME280;7757;52.626;4.746;2023-05-07T05:04:54;101510.41;;;19.38;63.97
15314;BME280;7757;52.626;4.746;2023-05-07T05:07:43;101505.91;;;19.50;64.17
15314;BME280;7757;52.626;4.746;2023-05-07T05:10:28;101500.47;;;19.14;65.39
15314;BME280;7757;52.626;4.746;2023-05-07T05:13:14;101500.56;;;19.07;66.08
15314;BME280;7757;52.626;4.746;2023-05-07T05:16:03;101511.00;;;19.58;64.12
15314;BME280;7757;52.626;4.746;2023-05-07T05:18:49;101521.41;;;19.61;63.78
15314;BME280;7757;52.626;4.746;2023-05-07T05:21:39;101516.41;;;19.76;63.42
15314;BME280;7757;52.626;4.746;2023-05-07T05:24:27;101517.41;;;19.64;63.51
15314;BME280;7757;52.626;4.746;2023-05-07T05:27:12;101516.81;;;19.62;63.84
15314;BME280;7757;52.626;4.746;2023-05-07T05:30:01;101510.91;;;19.83;62.75
15314;BME280;7757;52.626;4.746;2023-05-07T05:32:46;101524.13;;;19.61;63.46
15314;BME280;7757;52.626;4.746;2023-05-07T05:35:33;101517.16;;;19.83;62.91
15314;BME280;7757;52.626;4.746;2023-05-07T05:38:19;101527.41;;;19.81;62.62
15314;BME280;7757;52.626;4.746;2023-05-07T05:41:14;101531.72;;;19.34;64.69
15314;BME280;7757;52.626;4.746;2023-05-07T05:43:59;101537.63;;;19.49;64.31
15314;BME280;7757;52.626;4.746;2023-05-07T05:46:44;101534.16;;;19.61;64.08
15314;BME280;7757;52.626;4.746;2023-05-07T05:49:30;101538.09;;;19.46;64.50
15314;BME280;7757;52.626;4.746;2023-05-07T05:52:23;101539.94;;;19.64;63.58
15314;BME280;7757;52.626;4.746;2023-05-07T05:55:09;101541.00;;;19.09;65.78
15314;BME280;7757;52.626;4.746;2023-05-07T05:57:56;101538.88;;;19.29;64.80
15314;BME280;7757;52.626;4.746;2023-05-07T06:00:41;101542.13;;;19.37;64.92
15314;BME280;7757;52.626;4.746;2023-05-07T06:03:30;101543.31;;;19.48;64.26
15314;BME280;7757;52.626;4.746;2023-05-07T06:06:16;101546.66;;;19.62;63.89
15314;BME280;7757;52.626;4.746;2023-05-07T06:09:03;101548.81;;;18.99;66.51
15314;BME280;7757;52.626;4.746;2023-05-07T06:11:48;101547.34;;;19.21;65.47
15314;BME280;7757;52.626;4.746;2023-05-07T06:14:37;101553.34;;;19.05;66.28
15314;BME280;7757;52.626;4.746;2023-05-07T06:17:38;101564.44;;;19.58;64.31
15314;BME280;7757;52.626;4.746;2023-05-07T06:20:26;101566.63;;;19.67;64.01
15314;BME280;7757;52.626;4.746;2023-05-07T06:23:11;101558.47;;;19.85;62.99
15314;BME280;7757;52.626;4.746;2023-05-07T06:26:01;101560.56;;;19.54;64.39
15314;BME280;7757;52.626;4.746;2023-05-07T06:28:46;101572.13;;;19.79;63.71
15314;BME280;7757;52.626;4.746;2023-05-07T06:31:32;101551.06;;;18.59;69.11
15314;BME280;7757;52.626;4.746;2023-05-07T06:34:17;101560.09;;;19.75;64.33
15314;BME280;7757;52.626;4.746;2023-05-07T06:37:03;101555.19;;;19.47;65.04
15314;BME280;7757;52.626;4.746;2023-05-07T06:39:48;101567.16;;;19.76;64.19
15314;BME280;7757;52.626;4.746;2023-05-07T06:42:35;101570.44;;;19.66;64.48
15314;BME280;7757;52.626;4.746;2023-05-07T06:45:21;101580.84;;;19.99;63.49
15314;BME280;7757;52.626;4.746;2023-05-07T06:48:06;101583.94;;;19.84;63.99
15314;BME280;7757;52.626;4.746;2023-05-07T06:50:53;101574.31;;;19.88;63.91
15314;BME280;7757;52.626;4.746;2023-05-07T06:53:46;101565.13;;;19.71;64.59
15314;BME280;7757;52.626;4.746;2023-05-07T06:56:32;101560.28;;;19.37;65.88
15314;BME280;7757;52.626;4.746;2023-05-07T06:59:19;101569.47;;;19.42;65.97
15314;BME280;7757;52.626;4.746;2023-05-07T07:02:05;101566.88;;;19.66;65.27
15314;BME280;7757;52.626;4.746;2023-05-07T07:04:50;101568.97;;;19.64;65.16
15314;BME280;7757;52.626;4.746;2023-05-07T07:07:35;101563.19;;;20.20;63.77
15314;BME280;7757;52.626;4.746;2023-05-07T07:10:21;101558.19;;;20.35;63.64
15314;BME280;7757;52.626;4.746;2023-05-07T07:13:06;101560.97;;;20.70;62.28
15314;BME280;7757;52.626;4.746;2023-05-07T07:15:53;101564.84;;;20.50;62.40
15314;BME280;7757;52.626;4.746;2023-05-07T07:18:39;101559.84;;;19.76;65.14
15314;BME280;7757;52.626;4.746;2023-05-07T07:21:24;101569.03;;;19.75;65.38
15314;BME280;7757;52.626;4.746;2023-05-07T07:24:09;101563.91;;;20.15;64.96
15314;BME280;7757;52.626;4.746;2023-05-07T07:26:54;101567.59;;;19.91;64.80
15314;BME280;7757;52.626;4.746;2023-05-07T07:29:43;101569.94;;;20.17;64.09
15314;BME280;7757;52.626;4.746;2023-05-07T07:32:29;101566.28;;;19.93;64.54
15314;BME280;7757;52.626;4.746;2023-05-07T07:35:16;101568.00;;;20.06;64.06
15314;BME280;7757;52.626;4.746;2023-05-07T07:38:01;101572.38;;;20.25;63.59
15314;BME280;7757;52.626;4.746;2023-05-07T07:40:47;101566.25;;;20.41;63.59
15314;BME280;7757;52.626;4.746;2023-05-07T07:43:32;101564.31;;;21.81;59.46
15314;BME280;7757;52.626;4.746;2023-05-07T07:46:18;101559.09;;;20.82;62.26
15314;BME280;7757;52.626;4.746;2023-05-07T07:49:05;101569.75;;;21.06;61.69
15314;BME280;7757;52.626;4.746;2023-05-07T07:51:50;101576.94;;;21.99;59.62
15314;BME280;7757;52.626;4.746;2023-05-07T07:54:36;101574.94;;;21.83;59.60
15314;BME280;7757;52.626;4.746;2023-05-07T07:57:21;101569.50;;;21.43;61.03
15314;BME280;7757;52.626;4.746;2023-05-07T08:00:08;101567.06;;;21.18;62.18
15314;BME280;7757;52.626;4.746;2023-05-07T08:02:54;101571.31;;;21.14;62.42
15314;BME280;7757;52.626;4.746;2023-05-07T08:05:41;101573.34;;;22.55;58.62
15314;BME280;7757;52.626;4.746;2023-05-07T08:08:27;101571.00;;;21.62;60.52
15314;BME280;7757;52.626;4.746;2023-05-07T08:11:13;101573.06;;;21.95;60.02
15314;BME280;7757;52.626;4.746;2023-05-07T08:13:58;101571.88;;;21.04;63.23
15314;BME280;7757;52.626;4.746;2023-05-07T08:16:49;101572.25;;;21.31;62.08
15314;BME280;7757;52.626;4.746;2023-05-07T08:19:37;101569.25;;;21.44;62.05
15314;BME280;7757;52.626;4.746;2023-05-07T08:22:28;101574.38;;;21.18;63.22
15314;BME280;7757;52.626;4.746;2023-05-07T08:25:25;101574.19;;;21.59;62.44
15314;BME280;7757;52.626;4.746;2023-05-07T08:28:19;101576.22;;;21.63;62.12
15314;BME280;7757;52.626;4.746;2023-05-07T08:31:06;101581.38;;;22.16;60.06
15314;BME280;7757;52.626;4.746;2023-05-07T08:33:51;101575.59;;;22.13;59.59
15314;BME280;7757;52.626;4.746;2023-05-07T08:36:36;101581.16;;;22.06;59.52
15314;BME280;7757;52.626;4.746;2023-05-07T08:39:23;101587.72;;;21.94;59.99
15314;BME280;7757;52.626;4.746;2023-05-07T08:42:09;101583.13;;;22.22;59.15
15314;BME280;7757;52.626;4.746;2023-05-07T08:44:57;101583.19;;;22.11;60.16
15314;BME280;7757;52.626;4.746;2023-05-07T08:47:44;101589.63;;;22.21;59.46
15314;BME280;7757;52.626;4.746;2023-05-07T08:50:35;101592.06;;;22.06;59.46
15314;BME280;7757;52.626;4.746;2023-05-07T08:53:21;101591.97;;;22.30;58.73
15314;BME280;7757;52.626;4.746;2023-05-07T08:56:08;101593.91;;;22.46;57.97
15314;BME280;7757;52.626;4.746;2023-05-07T08:58:54;101597.25;;;22.36;58.65
15314;BME280;7757;52.626;4.746;2023-05-07T09:01:40;101603.38;;;21.98;59.38
15314;BME280;7757;52.626;4.746;2023-05-07T09:04:25;101600.69;;;22.15;59.77
15314;BME280;7757;52.626;4.746;2023-05-07T09:07:20;101606.97;;;22.15;59.23
15314;BME280;7757;52.626;4.746;2023-05-07T09:10:08;101602.66;;;21.91;60.14
15314;BME280;7757;52.626;4.746;2023-05-07T09:13:02;101601.38;;;21.70;61.04
15314;BME280;7757;52.626;4.746;2023-05-07T09:16:10;101600.94;;;21.62;61.43
15314;BME280;7757;52.626;4.746;2023-05-07T09:18:58;101602.13;;;21.66;61.11
15314;BME280;7757;52.626;4.746;2023-05-07T09:21:44;101603.31;;;21.58;61.66
15314;BME280;7757;52.626;4.746;2023-05-07T09:24:38;101605.03;;;21.88;60.78
15314;BME280;7757;52.626;4.746;2023-05-07T09:27:41;101604.06;;;21.82;60.52
15314;BME280;7757;52.626;4.746;2023-05-07T09:30:29;101608.97;;;22.20;60.07
15314;BME280;7757;52.626;4.746;2023-05-07T09:33:27;101598.38;;;22.52;59.17
15314;BME280;7757;52.626;4.746;2023-05-07T09:36:12;101580.41;;;22.56;58.48
15314;BME280;7757;52.626;4.746;2023-05-07T09:39:03;101608.25;;;22.69;58.79
15314;BME280;7757;52.626;4.746;2023-05-07T09:42:03;101606.44;;;22.47;58.70
15314;BME280;7757;52.626;4.746;2023-05-07T09:45:28;101611.09;;;22.46;59.01
15314;BME280;7757;52.626;4.746;2023-05-07T09:48:21;101604.47;;;22.59;58.45
15314;BME280;7757;52.626;4.746;2023-05-07T09:51:18;101603.63;;;22.70;57.55
15314;BME280;7757;52.626;4.746;2023-05-07T09:54:07;101613.53;;;22.93;58.20
15314;BME280;7757;52.626;4.746;2023-05-07T09:56:53;101613.56;;;22.48;58.49
15314;BME280;7757;52.626;4.746;2023-05-07T09:59:50;101615.16;;;22.32;59.38
15314;BME280;7757;52.626;4.746;2023-05-07T10:02:56;101603.28;;;22.66;59.35
15314;BME280;7757;52.626;4.746;2023-05-07T10:05:42;101617.31;;;22.30;58.91
15314;BME280;7757;52.626;4.746;2023-05-07T10:08:28;101597.97;;;21.75;62.27
15314;BME280;7757;52.626;4.746;2023-05-07T10:11:19;101604.97;;;21.59;64.26
15314;BME280;7757;52.626;4.746;2023-05-07T10:14:05;101615.16;;;21.64;63.36
15314;BME280;7757;52.626;4.746;2023-05-07T10:16:51;101615.16;;;21.41;64.46
15314;BME280;7757;52.626;4.746;2023-05-07T10:19:41;101609.22;;;21.55;64.22
15314;BME280;7757;52.626;4.746;2023-05-07T10:22:29;101613.72;;;21.61;63.36
15314;BME280;7757;52.626;4.746;2023-05-07T10:25:18;101596.59;;;21.38;64.06
15314;BME280;7757;52.626;4.746;2023-05-07T10:28:08;101598.03;;;21.52;63.52
15314;BME280;7757;52.626;4.746;2023-05-07T10:31:04;101623.69;;;21.44;64.08
15314;BME280;7757;52.626;4.746;2023-05-07T10:33:53;101618.13;;;21.51;64.29
15314;BME280;7757;52.626;4.746;2023-05-07T10:36:42;101617.31;;;21.39;64.92
15314;BME280;7757;52.626;4.746;2023-05-07T10:39:29;101620.00;;;21.50;64.17
15314;BME280;7757;52.626;4.746;2023-05-07T10:42:16;101611.50;;;21.00;65.44
15314;BME280;7757;52.626;4.746;2023-05-07T10:45:12;101610.94;;;21.22;65.16
15314;BME280;7757;52.626;4.746;2023-05-07T10:48:11;101614.84;;;21.37;64.10
15314;BME280;7757;52.626;4.746;2023-05-07T10:51:19;101602.84;;;20.92;65.65
15314;BME280;7757;52.626;4.746;2023-05-07T10:54:24;101606.88;;;20.89;65.70
15314;BME280;7757;52.626;4.746;2023-05-07T10:57:35;101627.69;;;20.84;66.13
15314;BME280;7757;52.626;4.746;2023-05-07T11:00:44;101636.38;;;21.16;65.17
15314;BME280;7757;52.626;4.746;2023-05-07T11:03:30;101637.59;;;20.78;66.70
15314;BME280;7757;52.626;4.746;2023-05-07T11:06:19;101632.13;;;21.31;64.87
15314;BME280;7757;52.626;4.746;2023-05-07T11:09:05;101639.41;;;21.07;65.07
15314;BME280;7757;52.626;4.746;2023-05-07T11:11:52;101618.84;;;21.23;64.74
15314;BME280;7757;52.626;4.746;2023-05-07T11:14:44;101629.94;;;21.56;64.01
15314;BME280;7757;52.626;4.746;2023-05-07T11:17:30;101637.88;;;21.46;63.83
15314;BME280;7757;52.626;4.746;2023-05-07T11:20:18;101635.97;;;21.58;63.68
15314;BME280;7757;52.626;4.746;2023-05-07T11:23:04;101633.13;;;21.65;63.06
15314;BME280;7757;52.626;4.746;2023-05-07T11:25:50;101626.66;;;21.08;64.63
15314;BME280;7757;52.626;4.746;2023-05-07T11:28:45;101633.41;;;21.17;65.78
15314;BME280;7757;52.626;4.746;2023-05-07T11:31:31;101637.91;;;21.58;64.44
15314;BME280;7757;52.626;4.746;2023-05-07T11:34:21;101568.44;;;20.86;64.78
15314;BME280;7757;52.626;4.746;2023-05-07T11:37:07;101635.81;;;21.77;63.18
15314;BME280;7757;52.626;4.746;2023-05-07T11:40:03;101632.91;;;21.32;64.92
15314;BME280;7757;52.626;4.746;2023-05-07T11:42:49;101641.69;;;21.10;64.95
15314;BME280;7757;52.626;4.746;2023-05-07T11:45:36;101635.13;;;21.00;65.73
15314;BME280;7757;52.626;4.746;2023-05-07T11:48:22;101636.94;;;21.29;64.41
15314;BME280;7757;52.626;4.746;2023-05-07T11:51:07;101650.97;;;21.03;65.43
15314;BME280;7757;52.626;4.746;2023-05-07T11:53:56;101645.50;;;20.80;66.65
15314;BME280;7757;52.626;4.746;2023-05-07T11:56:44;101646.84;;;21.00;65.33
15314;BME280;7757;52.626;4.746;2023-05-07T11:59:40;101652.25;;;20.77;65.95
15314;BME280;7757;52.626;4.746;2023-05-07T12:02:30;101655.63;;;20.61;66.57
15314;BME280;7757;52.626;4.746;2023-05-07T12:05:15;101661.59;;;20.40;67.29
15314;BME280;7757;52.626;4.746;2023-05-07T12:08:01;101664.16;;;20.65;66.35
15314;BME280;7757;52.626;4.746;2023-05-07T12:10:48;101631.44;;;20.83;65.64
15314;BME280;7757;52.626;4.746;2023-05-07T12:13:34;101664.03;;;21.12;64.82
15314;BME280;7757;52.626;4.746;2023-05-07T12:16:20;101664.94;;;21.06;65.17
15314;BME280;7757;52.626;4.746;2023-05-07T12:19:07;101668.34;;;20.90;66.30
15314;BME280;7757;52.626;4.746;2023-05-07T12:21:59;101673.41;;;20.34;70.14
15314;BME280;7757;52.626;4.746;2023-05-07T12:24:47;101662.28;;;19.99;71.38
15314;BME280;7757;52.626;4.746;2023-05-07T12:27:37;101668.84;;;20.46;69.98
15314;BME280;7757;52.626;4.746;2023-05-07T12:30:25;101663.88;;;20.84;67.57
15314;BME280;7757;52.626;4.746;2023-05-07T12:33:10;101660.34;;;20.06;71.68
15314;BME280;7757;52.626;4.746;2023-05-07T12:35:58;101655.81;;;20.00;71.85
15314;BME280;7757;52.626;4.746;2023-05-07T12:38:43;101667.38;;;20.73;69.20
15314;BME280;7757;52.626;4.746;2023-05-07T12:41:29;101656.47;;;20.14;71.17
15314;BME280;7757;52.626;4.746;2023-05-07T12:44:15;101662.00;;;19.53;74.17
15314;BME280;7757;52.626;4.746;2023-05-07T12:47:01;101658.00;;;19.55;74.28
15314;BME280;7757;52.626;4.746;2023-05-07T12:49:47;101654.06;;;20.24;71.58
15314;BME280;7757;52.626;4.746;2023-05-07T12:52:34;101654.22;;;20.29;70.63
15314;BME280;7757;52.626;4.746;2023-05-07T12:55:20;101656.34;;;19.90;72.64
15314;BME280;7757;52.626;4.746;2023-05-07T12:58:05;101673.28;;;20.40;70.22
15314;BME280;7757;52.626;4.746;2023-05-07T13:00:51;101682.47;;;20.28;71.40
15314;BME280;7757;52.626;4.746;2023-05-07T13:03:38;101697.28;;;20.73;69.54
15314;BME280;7757;52.626;4.746;2023-05-07T13:06:26;101698.22;;;20.19;71.41
15314;BME280;7757;52.626;4.746;2023-05-07T13:09:13;101709.34;;;20.47;69.92
15314;BME280;7757;52.626;4.746;2023-05-07T13:12:02;101712.69;;;20.91;68.01
15314;BME280;7757;52.626;4.746;2023-05-07T13:14:48;101708.69;;;20.16;70.70
15314;BME280;7757;52.626;4.746;2023-05-07T13:17:33;101710.25;;;20.23;70.84
15314;BME280;7757;52.626;4.746;2023-05-07T13:20:19;101706.63;;;20.77;68.30
15314;BME280;7757;52.626;4.746;2023-05-07T13:23:04;101714.00;;;20.58;68.93
15314;BME280;7757;52.626;4.746;2023-05-07T13:25:53;101709.53;;;20.64;69.18
15314;BME280;7757;52.626;4.746;2023-05-07T13:28:39;101697.38;;;20.00;71.46
15314;BME280;7757;52.626;4.746;2023-05-07T13:31:36;101698.66;;;20.64;68.86
15314;BME280;7757;52.626;4.746;2023-05-07T13:34:26;101696.78;;;20.65;68.36
15314;BME280;7757;52.626;4.746;2023-05-07T13:37:14;101701.84;;;20.61;68.41
15314;BME280;7757;52.626;4.746;2023-05-07T13:39:59;101699.78;;;20.75;67.80
15314;BME280;7757;52.626;4.746;2023-05-07T13:42:46;101706.88;;;20.87;67.54
15314;BME280;7757;52.626;4.746;2023-05-07T13:45:31;101706.78;;;20.52;68.73
15314;BME280;7757;52.626;4.746;2023-05-07T13:48:17;101712.41;;;20.69;68.79
15314;BME280;7757;52.626;4.746;2023-05-07T13:51:02;101709.75;;;20.92;67.07
15314;BME280;7757;52.626;4.746;2023-05-07T13:53:47;101711.16;;;20.95;67.49
15314;BME280;7757;52.626;4.746;2023-05-07T13:56:33;101702.66;;;21.03;66.87
15314;BME280;7757;52.626;4.746;2023-05-07T13:59:20;101706.31;;;20.97;67.08
15314;BME280;7757;52.626;4.746;2023-05-07T14:02:09;101711.50;;;21.17;66.04
15314;BME280;7757;52.626;4.746;2023-05-07T14:04:54;101717.47;;;21.07;67.19
15314;BME280;7757;52.626;4.746;2023-05-07T14:07:43;101723.28;;;20.69;67.66
15314;BME280;7757;52.626;4.746;2023-05-07T14:10:35;101724.94;;;21.11;66.57
15314;BME280;7757;52.626;4.746;2023-05-07T14:13:20;101723.06;;;21.12;66.22
15314;BME280;7757;52.626;4.746;2023-05-07T14:16:07;101731.28;;;20.64;68.77
15314;BME280;7757;52.626;4.746;2023-05-07T14:18:54;101721.97;;;21.01;66.86
15314;BME280;7757;52.626;4.746;2023-05-07T14:21:42;101715.50;;;20.07;70.32
15314;BME280;7757;52.626;4.746;2023-05-07T14:24:28;101713.13;;;19.74;72.46
15314;BME280;7757;52.626;4.746;2023-05-07T14:27:16;101716.28;;;20.43;69.22
15314;BME280;7757;52.626;4.746;2023-05-07T14:30:01;101717.69;;;19.55;72.72
15314;BME280;7757;52.626;4.746;2023-05-07T14:32:48;101726.66;;;20.65;68.87
15314;BME280;7757;52.626;4.746;2023-05-07T14:35:33;101718.63;;;20.99;67.26
15314;BME280;7757;52.626;4.746;2023-05-07T14:38:19;101721.59;;;20.98;66.54
15314;BME280;7757;52.626;4.746;2023-05-07T14:41:04;101738.13;;;20.96;67.60
15314;BME280;7757;52.626;4.746;2023-05-07T14:43:50;101730.56;;;20.87;67.84
15314;BME280;7757;52.626;4.746;2023-05-07T14:46:43;101731.34;;;21.17;66.26
15314;BME280;7757;52.626;4.746;2023-05-07T14:49:42;101720.44;;;20.76;68.60